createdAt,value
2022-10-08T00:03:35.291Z,13.60
2022-10-08T00:08:41.278Z,13.60
2022-10-08T00:13:48.031Z,13.50
2022-10-08T00:18:52.449Z,13.50
2022-10-08T00:23:55.852Z,13.50
2022-10-08T00:29:02.946Z,13.40
2022-10-08T00:34:08.630Z,13.40
2022-10-08T00:39:14.808Z,13.40
2022-10-08T00:44:57.604Z,13.30
2022-10-08T00:50:06.216Z,13.30
2022-10-08T00:55:10.587Z,13.20
2022-10-08T01:00:16.110Z,13.10
2022-10-08T01:05:30.107Z,13.10
2022-10-08T01:10:41.116Z,13.00
2022-10-08T01:15:52.258Z,13.00
2022-10-08T01:21:05.217Z,12.90
2022-10-08T01:26:27.782Z,12.80
2022-10-08T01:31:36.073Z,12.80
2022-10-08T01:36:43.984Z,12.70
2022-10-08T01:41:52.253Z,12.70
2022-10-08T01:46:59.369Z,12.60
2022-10-08T01:52:07.745Z,12.60
2022-10-08T01:57:12.080Z,12.50
2022-10-08T02:02:21.654Z,12.50
2022-10-08T02:07:26.900Z,12.40
2022-10-08T02:12:29.875Z,12.40
2022-10-08T02:17:40.815Z,12.40
2022-10-08T02:22:51.677Z,12.40
2022-10-08T02:28:01.807Z,12.40
2022-10-08T02:33:11.224Z,12.40
2022-10-08T02:38:21.608Z,12.40
2022-10-08T02:43:30.655Z,12.40
2022-10-08T02:48:37.201Z,12.40
2022-10-08T02:53:41.390Z,12.40
2022-10-08T02:58:46.122Z,12.40
2022-10-08T03:03:58.738Z,12.40
2022-10-08T03:09:03.220Z,12.40
2022-10-08T03:14:09.712Z,12.40
2022-10-08T03:19:15.849Z,12.40
2022-10-08T03:24:18.777Z,12.40
2022-10-08T03:29:22.360Z,12.40
2022-10-08T03:34:28.004Z,12.40
2022-10-08T03:39:30.968Z,12.40
2022-10-08T03:44:33.862Z,12.40
2022-10-08T03:49:38.121Z,12.30
2022-10-08T03:54:41.073Z,12.20
2022-10-08T03:59:44.015Z,12.10
2022-10-08T04:04:48.294Z,12.00
2022-10-08T04:09:51.430Z,11.90
2022-10-08T04:14:54.361Z,11.80
2022-10-08T04:19:58.626Z,11.80
2022-10-08T04:25:01.563Z,11.80
2022-10-08T04:30:05.117Z,11.70
2022-10-08T04:35:10.319Z,11.60
2022-10-08T04:40:13.248Z,11.60
2022-10-08T04:45:16.252Z,11.60
2022-10-08T04:50:20.530Z,11.60
2022-10-08T04:55:24.741Z,11.60
2022-10-08T05:00:27.776Z,11.60
2022-10-08T05:05:32.040Z,11.60
2022-10-08T05:10:35.287Z,11.60
2022-10-08T05:15:38.376Z,11.60
2022-10-08T05:20:42.752Z,11.50
2022-10-08T05:25:45.710Z,11.50
2022-10-08T05:30:48.682Z,11.50
2022-10-08T05:35:53.024Z,11.50
2022-10-08T05:40:55.985Z,11.50
2022-10-08T05:45:58.925Z,11.50
2022-10-08T05:51:07.860Z,11.50
2022-10-08T05:56:12.721Z,11.50
2022-10-08T06:01:20.126Z,11.40
2022-10-08T06:06:25.330Z,11.50
2022-10-08T06:11:29.104Z,11.50
2022-10-08T06:16:32.331Z,11.50
2022-10-08T06:21:37.096Z,11.50
2022-10-08T06:26:42.367Z,11.50
2022-10-08T06:31:46.870Z,11.60
2022-10-08T06:36:51.286Z,11.70
2022-10-08T06:41:54.276Z,11.80
2022-10-08T06:46:57.274Z,11.90
2022-10-08T06:52:02.147Z,12.00
2022-10-08T06:57:05.431Z,12.10
2022-10-08T07:02:11.131Z,12.30
2022-10-08T07:07:15.535Z,12.40
2022-10-08T07:12:18.589Z,12.50
2022-10-08T07:17:22.632Z,12.70
2022-10-08T07:22:27.026Z,12.90
2022-10-08T07:27:30.001Z,13.10
2022-10-08T07:32:32.999Z,13.40
2022-10-08T07:37:40.215Z,13.70
2022-10-08T07:42:43.594Z,14.00
2022-10-08T07:47:47.421Z,14.20
2022-10-08T07:52:52.929Z,14.40
2022-10-08T07:57:56.057Z,14.60
2022-10-08T08:02:59.107Z,14.70
2022-10-08T08:08:03.583Z,14.90
2022-10-08T08:13:06.885Z,14.90
2022-10-08T08:18:12.095Z,15.00
2022-10-08T08:23:16.420Z,15.00
2022-10-08T08:28:19.414Z,15.00
2022-10-08T08:33:22.428Z,15.00
2022-10-08T08:38:26.761Z,14.90
2022-10-08T08:43:31.402Z,14.90
2022-10-08T08:48:37.821Z,14.90
2022-10-08T08:53:42.292Z,14.90
2022-10-08T08:58:50.611Z,14.90
2022-10-08T09:03:56.452Z,14.90
2022-10-08T09:09:06.312Z,14.90
2022-10-08T09:14:22.318Z,15.00
2022-10-08T09:19:25.404Z,14.90
2022-10-08T09:24:30.149Z,14.90
2022-10-08T09:29:35.214Z,15.00
2022-10-08T09:34:39.570Z,15.00
2022-10-08T09:40:08.531Z,15.00
2022-10-08T09:45:35.113Z,15.10
2022-10-08T09:50:38.649Z,15.30
2022-10-08T09:55:51.691Z,15.30
2022-10-08T10:01:04.722Z,15.40
2022-10-08T10:06:08.084Z,15.50
2022-10-08T10:11:16.171Z,15.60
2022-10-08T10:16:25.543Z,15.60
2022-10-08T10:21:36.960Z,15.70
2022-10-08T10:26:43.884Z,15.80
2022-10-08T10:31:52.016Z,15.90
2022-10-08T10:36:58.534Z,16.10
2022-10-08T10:42:11.104Z,16.20
2022-10-08T10:47:15.708Z,16.30
2022-10-08T10:52:41.467Z,16.30
2022-10-08T10:58:02.384Z,16.40
2022-10-08T11:03:16.475Z,16.40
2022-10-08T11:08:31.327Z,16.50
2022-10-08T11:13:48.749Z,16.60
2022-10-08T11:18:55.148Z,16.60
2022-10-08T11:24:15.368Z,16.70
2022-10-08T11:29:27.708Z,16.80
2022-10-08T11:34:33.860Z,17.00
2022-10-08T11:39:45.836Z,17.20
2022-10-08T11:44:50.148Z,17.40
2022-10-08T11:49:56.266Z,17.60
2022-10-08T11:55:01.011Z,17.90
2022-10-08T12:00:08.820Z,18.10
2022-10-08T12:05:20.892Z,18.30
2022-10-08T12:10:30.907Z,18.40
2022-10-08T12:16:04.845Z,18.60
2022-10-08T12:21:50.971Z,18.80
2022-10-08T12:27:22.081Z,18.90
2022-10-08T12:32:27.386Z,19.10
2022-10-08T12:37:45.715Z,19.20
2022-10-08T12:42:53.449Z,19.40
2022-10-08T12:48:04.679Z,19.50
2022-10-08T12:53:08.682Z,19.60
2022-10-08T12:58:17.344Z,19.70
2022-10-08T13:03:21.798Z,19.80
2022-10-08T13:08:33.196Z,19.90
2022-10-08T13:13:44.150Z,19.90
2022-10-08T13:18:53.418Z,19.90
2022-10-08T13:23:56.359Z,20.00
2022-10-08T13:29:31.240Z,20.00
2022-10-08T13:34:42.927Z,20.10
2022-10-08T13:39:52.683Z,20.30
2022-10-08T13:44:55.941Z,20.30
2022-10-08T13:50:02.124Z,20.30
2022-10-08T13:55:07.572Z,20.30
2022-10-08T14:00:14.731Z,20.40
2022-10-08T14:05:19.051Z,20.50
2022-10-08T14:10:22.260Z,20.70
2022-10-08T14:15:25.633Z,20.80
2022-10-08T14:20:29.962Z,20.80
2022-10-08T14:25:32.998Z,20.80
2022-10-08T14:30:36.107Z,20.90
2022-10-08T14:35:40.560Z,20.90
2022-10-08T14:40:43.540Z,21.00
2022-10-08T14:45:46.493Z,21.00
2022-10-08T14:50:50.815Z,21.00
2022-10-08T14:56:11.054Z,20.90
2022-10-08T15:01:15.272Z,20.90
2022-10-08T15:06:19.630Z,20.70
2022-10-08T15:11:22.638Z,20.60
2022-10-08T15:16:26.071Z,20.50
2022-10-08T15:21:30.393Z,20.40
2022-10-08T15:26:33.349Z,20.10
2022-10-08T15:31:36.298Z,20.00
2022-10-08T15:36:40.585Z,19.80
2022-10-08T15:41:45.123Z,19.70
2022-10-08T15:46:49.103Z,19.60
2022-10-08T15:51:53.394Z,19.40
2022-10-08T15:56:56.361Z,19.30
2022-10-08T16:01:59.523Z,19.10
2022-10-08T16:07:03.932Z,19.00
2022-10-08T16:12:07.133Z,18.90
2022-10-08T16:17:10.316Z,18.80
2022-10-08T16:22:14.804Z,18.70
2022-10-08T16:27:17.785Z,18.60
2022-10-08T16:32:20.759Z,18.50
2022-10-08T16:37:25.119Z,18.40
2022-10-08T16:42:28.061Z,18.30
2022-10-08T16:47:31.017Z,18.10
2022-10-08T16:52:35.329Z,18.00
2022-10-08T16:57:38.301Z,17.90
2022-10-08T17:02:41.388Z,17.80
2022-10-08T17:07:45.746Z,17.70
2022-10-08T17:12:49.408Z,17.60
2022-10-08T17:17:55.538Z,17.50
2022-10-08T17:23:00.157Z,17.30
2022-10-08T17:28:03.213Z,17.10
2022-10-08T17:33:06.277Z,16.90
2022-10-08T17:38:10.775Z,16.70
2022-10-08T17:43:13.764Z,16.50
2022-10-08T17:48:17.035Z,16.30
2022-10-08T17:53:21.388Z,16.10
2022-10-08T17:58:24.395Z,16.00
2022-10-08T18:03:27.360Z,15.90
2022-10-08T18:08:32.048Z,15.80
2022-10-08T18:13:35.387Z,15.70
2022-10-08T18:18:38.976Z,15.60
2022-10-08T18:23:43.791Z,15.50
2022-10-08T18:28:48.058Z,15.40
2022-10-08T18:33:52.675Z,15.20
2022-10-08T18:38:58.319Z,15.10
2022-10-08T18:44:47.847Z,14.90
2022-10-08T18:49:51.645Z,14.80
2022-10-08T18:54:56.039Z,14.70
2022-10-08T18:59:59.023Z,14.60
2022-10-08T19:05:02.571Z,14.40
2022-10-08T19:10:09.026Z,14.30
2022-10-08T19:15:12.069Z,14.10
2022-10-08T19:20:15.271Z,14.00
2022-10-08T19:25:21.285Z,13.90
2022-10-08T19:30:27.415Z,13.80
2022-10-08T19:35:32.500Z,13.70
2022-10-08T19:40:37.252Z,13.60
2022-10-08T19:45:40.187Z,13.50
2022-10-08T19:50:43.318Z,13.40
2022-10-08T19:55:47.753Z,13.30
2022-10-08T20:00:59.423Z,13.30
2022-10-08T20:06:04.438Z,13.20
2022-10-08T20:11:11.096Z,13.10
2022-10-08T20:16:16.185Z,13.00
2022-10-08T20:21:20.340Z,12.90
2022-10-08T20:26:26.676Z,12.80
2022-10-08T20:31:31.425Z,12.70
2022-10-08T20:36:35.824Z,12.60
2022-10-08T20:41:40.572Z,12.50
2022-10-08T20:46:43.729Z,12.50
2022-10-08T20:51:46.846Z,12.50
2022-10-08T20:56:51.159Z,12.40
2022-10-08T21:01:54.174Z,12.30
2022-10-08T21:06:57.358Z,12.20
2022-10-08T21:12:01.761Z,12.10
2022-10-08T21:17:04.710Z,12.00
2022-10-08T21:22:07.809Z,12.00
2022-10-08T21:27:12.147Z,11.90
2022-10-08T21:32:16.802Z,11.80
2022-10-08T21:37:19.733Z,11.70
2022-10-08T21:42:24.060Z,11.70
2022-10-08T21:47:28.818Z,11.60
2022-10-08T21:52:31.824Z,11.60
2022-10-08T21:57:37.280Z,11.50
2022-10-08T22:02:41.290Z,11.50
2022-10-08T22:07:44.325Z,11.50
2022-10-08T22:12:50.152Z,11.50
2022-10-08T22:17:53.285Z,11.40
2022-10-08T22:22:56.263Z,11.30
2022-10-08T22:28:02.356Z,11.20
2022-10-08T22:33:06.332Z,11.10
2022-10-08T22:38:10.396Z,11.00
2022-10-08T22:43:14.676Z,10.90
2022-10-08T22:48:17.641Z,10.90
2022-10-08T22:53:20.590Z,10.80
2022-10-08T22:58:25.173Z,10.70
2022-10-08T23:03:28.222Z,10.60
2022-10-08T23:08:31.460Z,10.60
2022-10-08T23:13:35.947Z,10.50
2022-10-08T23:18:41.719Z,10.40
2022-10-08T23:23:46.149Z,10.40
2022-10-08T23:28:53.724Z,10.30
2022-10-08T23:33:59.806Z,10.30
2022-10-08T23:39:04.172Z,10.20
2022-10-08T23:44:10.957Z,10.10
2022-10-08T23:49:14.064Z,10.00
2022-10-08T23:54:16.993Z,10.00
2022-10-08T23:59:21.984Z,9.90
